Time;durP1;ratioP1;P1;durP2;ratioP2;P2;SDS_P1;SDS_P2;PMS_P1;PMS_P2;Temp;Humidity;BMP_temperature;BMP_pressure;BME280_temperature;BME280_humidity;BME280_pressure;Samples;Min_cycle;Max_cycle;Signal;HPM_P1;HPM_P2
2021/11/15 00:01:43;;;;;;;9.10;7.63;;;7.20;74.70;;;5.82;80.77;98636.00;5053176;28;20460;-77
2021/11/15 00:04:12;;;;;;;9.23;8.23;;;7.20;74.50;;;5.77;81.37;98631.19;5058112;28;20476;-77
2021/11/15 00:06:39;;;;;;;7.73;6.90;;;7.20;74.60;;;5.70;81.85;98629.34;5049843;28;20449;-77
2021/11/15 00:09:07;;;;;;;7.30;6.03;;;7.10;74.70;;;5.80;81.21;98630.84;5070764;28;20464;-76
2021/11/15 00:11:35;;;;;;;9.27;6.87;;;7.20;74.90;;;5.74;81.25;98625.31;5049734;28;20514;-77
2021/11/15 00:14:05;;;;;;;8.77;7.20;;;7.20;74.90;;;5.72;81.88;98632.69;5050982;28;20453;-80
2021/11/15 00:16:32;;;;;;;6.73;6.03;;;7.10;75.00;;;5.84;81.39;98635.84;5074374;28;21000;-76
2021/11/15 00:19:00;;;;;;;8.00;6.20;;;7.20;74.90;;;5.77;81.37;98619.59;5069751;28;20930;-75
2021/11/15 00:21:27;;;;;;;8.03;6.87;;;7.20;74.70;;;5.65;81.00;98611.09;5054645;28;20458;-76
2021/11/15 00:23:54;;;;;;;8.07;7.17;;;7.20;74.60;;;5.70;81.06;98624.00;5053421;28;20469;-75
2021/11/15 00:26:21;;;;;;;7.00;6.20;;;7.10;74.60;;;5.69;81.35;98623.13;5071000;28;20484;-75
2021/11/15 00:28:51;;;;;;;7.93;6.40;;;7.10;74.80;;;5.42;80.79;98584.94;5060588;28;20445;-75
2021/11/15 00:31:21;;;;;;;8.50;6.60;;;7.10;74.50;;;5.67;81.15;98631.34;5063624;28;20465;-76
2021/11/15 00:33:49;;;;;;;9.53;7.33;;;7.10;74.60;;;5.64;80.86;98614.78;5059706;28;20588;-77
2021/11/15 00:36:16;;;;;;;8.77;7.23;;;7.10;74.30;;;5.67;81.05;98620.59;5088433;28;20456;-76
2021/11/15 00:38:43;;;;;;;8.23;6.53;;;7.10;74.50;;;5.72;81.46;98627.34;5067820;28;20454;-75
2021/11/15 00:41:10;;;;;;;9.57;6.70;;;7.10;74.40;;;5.77;80.49;98627.66;5073222;28;20815;-75
2021/11/15 00:43:38;;;;;;;8.10;6.70;;;7.10;74.40;;;5.75;79.72;98629.66;5082498;28;20496;-75
2021/11/15 00:46:06;;;;;;;6.97;6.27;;;7.10;73.90;;;5.73;80.47;98629.00;5076671;28;20643;-76
2021/11/15 00:48:36;;;;;;;7.30;6.20;;;7.10;73.60;;;5.65;80.04;98633.34;5075082;28;20441;-76
2021/11/15 00:51:03;;;;;;;9.17;6.80;;;7.10;73.60;;;5.65;80.27;98636.03;5080501;28;20801;-75
2021/11/15 00:53:31;;;;;;;8.60;7.03;;;7.00;73.80;;;5.47;80.91;98621.97;5088632;28;20449;-76
2021/11/15 00:55:58;;;;;;;8.07;6.60;;;7.00;73.80;;;5.51;79.94;98625.97;5096024;28;20779;-76
2021/11/15 00:58:25;;;;;;;8.97;7.40;;;7.00;73.70;;;5.44;80.37;98627.66;5086859;28;20469;-77
2021/11/15 01:00:52;;;;;;;10.40;7.03;;;6.90;73.60;;;5.43;80.95;98640.22;5068608;28;20464;-76
2021/11/15 01:03:19;;;;;;;9.20;6.70;;;6.90;73.70;;;5.41;81.10;98647.59;5088639;28;20496;-77
2021/11/15 01:05:48;;;;;;;8.87;7.10;;;6.80;73.60;;;5.36;81.12;98640.03;5069510;28;20457;-78
2021/11/15 01:08:17;;;;;;;8.30;6.83;;;6.80;73.90;;;5.37;80.97;98614.09;5086223;28;20459;-75
2021/11/15 01:10:45;;;;;;;9.33;7.37;;;6.90;73.90;;;5.31;80.60;98623.66;5081201;28;20537;-76
2021/11/15 01:13:12;;;;;;;9.67;7.47;;;6.80;73.70;;;5.26;81.11;98623.31;5058059;28;20454;-78
2021/11/15 01:15:40;;;;;;;8.67;7.77;;;6.80;74.00;;;5.30;81.73;98635.38;5058961;28;20466;-76
2021/11/15 01:18:08;;;;;;;9.40;8.47;;;6.70;74.10;;;5.28;82.17;98634.69;5055554;28;20455;-77
2021/11/15 01:20:36;;;;;;;8.80;7.90;;;6.70;74.50;;;5.35;80.97;98630.34;5073480;28;20465;-77
2021/11/15 01:23:06;;;;;;;9.97;8.47;;;6.80;74.50;;;5.39;81.87;98630.84;5052835;28;20489;-76
2021/11/15 01:25:34;;;;;;;9.60;8.00;;;6.80;74.40;;;5.37;81.74;98638.22;5066269;28;20450;-76
2021/11/15 01:28:02;;;;;;;11.03;9.13;;;6.80;74.40;;;5.30;81.53;98630.00;5053728;28;20780;-75
2021/11/15 01:30:29;;;;;;;9.83;8.13;;;6.80;74.50;;;5.33;81.92;98644.94;5069238;28;20545;-76
2021/11/15 01:32:57;;;;;;;12.30;10.03;;;6.70;74.80;;;5.37;81.71;98636.38;5072719;28;20990;-76
2021/11/15 01:35:26;;;;;;;10.37;8.63;;;6.80;74.90;;;5.42;82.10;98645.78;5064565;28;20488;-77
2021/11/15 01:37:54;;;;;;;11.00;9.70;;;6.80;74.80;;;5.28;82.16;98636.53;5064712;28;20558;-77
2021/11/15 01:40:26;;;;;;;11.60;9.57;;;6.80;74.70;;;5.31;82.58;98639.72;5051509;28;20484;-75
2021/11/15 01:42:54;;;;;;;11.60;9.77;;;6.80;75.00;;;5.28;82.12;98637.38;5068171;28;20832;-76
2021/11/15 01:45:24;;;;;;;10.90;9.50;;;6.80;75.00;;;5.27;83.70;98638.38;5050243;28;21065;-77
2021/11/15 01:47:53;;;;;;;11.63;9.90;;;6.70;75.40;;;5.19;82.60;98620.47;5053235;28;20489;-76
2021/11/15 01:50:21;;;;;;;10.57;9.30;;;6.70;75.40;;;5.32;82.50;98644.06;5054617;28;20872;-76
2021/11/15 01:52:49;;;;;;;12.33;9.70;;;6.70;75.30;;;5.31;83.11;98639.72;5056089;28;20449;-76
2021/11/15 01:55:18;;;;;;;14.13;10.97;;;6.80;75.50;;;5.24;82.56;98620.78;5050579;28;20461;-77
2021/11/15 01:57:48;;;;;;;12.17;9.33;;;6.70;75.50;;;5.24;83.81;98622.66;5070369;28;21026;-76
2021/11/15 02:00:21;;;;;;;11.97;9.77;;;6.70;75.70;;;5.23;82.96;98628.97;5068618;28;21220;-75
2021/11/15 02:02:48;;;;;;;13.37;10.90;;;6.70;75.90;;;5.29;83.76;98638.19;5053805;28;20528;-76
2021/11/15 02:05:15;;;;;;;14.53;11.63;;;6.70;76.00;;;5.24;83.77;98614.59;5069124;28;20534;-75
2021/11/15 02:07:42;;;;;;;12.73;10.90;;;6.70;76.10;;;5.28;83.47;98642.75;5067235;28;21009;-75
2021/11/15 02:10:12;;;;;;;12.10;10.87;;;6.70;76.10;;;5.17;84.20;98635.00;5053816;28;20536;-76
2021/11/15 02:12:40;;;;;;;14.67;10.67;;;6.60;76.30;;;5.07;83.62;98614.56;5051321;28;20458;-75
2021/11/15 02:15:11;;;;;;;14.47;12.07;;;6.60;76.50;;;5.10;84.91;98630.34;5057468;28;20569;-74
2021/11/15 02:17:39;;;;;;;16.50;12.73;;;6.60;76.80;;;5.08;84.67;98615.41;5073214;28;20584;-77
2021/11/15 02:20:09;;;;;;;16.27;12.40;;;6.60;77.10;;;5.21;84.42;98623.81;5060534;28;20465;-76
2021/11/15 02:22:37;;;;;;;17.77;12.70;;;6.60;77.10;;;5.24;83.93;98619.97;5071473;28;20457;-76
2021/11/15 02:25:07;;;;;;;15.83;12.53;;;6.60;77.20;;;5.08;84.43;98605.56;5074391;28;20469;-74
2021/11/15 02:27:35;;;;;;;15.97;12.40;;;6.60;77.30;;;5.17;84.86;98625.16;5073351;28;20457;-75
2021/11/15 02:30:02;;;;;;;16.87;13.37;;;6.60;77.30;;;5.06;84.49;98607.53;5079946;28;20461;-75
2021/11/15 02:32:31;;;;;;;16.67;12.60;;;6.60;77.50;;;5.18;85.30;98612.56;5074645;28;20889;-76
2021/11/15 02:34:58;;;;;;;15.43;12.20;;;6.60;78.00;;;5.15;84.75;98594.16;5051705;28;20885;-75
2021/11/15 02:37:25;;;;;;;15.07;12.60;;;6.70;77.90;;;5.35;84.02;98605.41;5073302;28;20461;-75
2021/11/15 02:39:55;;;;;;;16.27;12.70;;;6.70;77.80;;;5.26;84.83;98596.53;5057358;28;20457;-75
2021/11/15 02:42:23;;;;;;;15.70;12.80;;;6.70;77.70;;;5.28;84.72;98605.22;5072507;28;20515;-74
2021/11/15 02:44:50;;;;;;;19.13;13.70;;;6.70;78.00;;;5.35;84.79;98600.84;5072592;28;20977;-75
2021/11/15 02:47:19;;;;;;;18.10;14.00;;;6.70;77.80;;;4.93;84.83;98567.03;5054731;28;20540;-75
2021/11/15 02:49:46;;;;;;;18.50;13.30;;;6.70;77.90;;;5.28;84.50;98594.50;5057013;28;20437;-75
2021/11/15 02:52:15;;;;;;;16.30;13.47;;;6.70;78.00;;;5.26;85.31;98596.53;5070846;28;20457;-75
2021/11/15 02:54:42;;;;;;;17.90;12.80;;;6.70;78.00;;;5.24;84.96;98582.47;5081706;28;20499;-76
2021/11/15 02:57:15;;;;;;;18.87;14.40;;;6.70;78.10;;;4.77;85.60;98525.81;5071081;28;20461;-76
2021/11/15 02:59:43;;;;;;;19.83;13.90;;;6.70;78.20;;;5.10;86.04;98595.50;5073454;28;20456;-76
2021/11/15 03:02:10;;;;;;;17.67;13.67;;;6.60;78.80;;;5.09;85.71;98588.47;5068369;28;20476;-76
2021/11/15 03:04:38;;;;;;;20.57;14.93;;;6.60;78.80;;;5.14;86.25;98606.72;5056899;28;20590;-76
2021/11/15 03:07:05;;;;;;;21.70;15.37;;;6.60;79.00;;;5.12;85.98;98599.88;5062411;28;20455;-77
2021/11/15 03:09:32;;;;;;;18.97;13.53;;;6.60;79.00;;;5.15;86.54;98599.53;5074727;28;20489;-76
2021/11/15 03:12:00;;;;;;;21.67;15.20;;;6.60;79.10;;;5.20;85.88;98597.16;5055041;28;20457;-75
2021/11/15 03:14:28;;;;;;;20.00;15.17;;;6.60;79.20;;;5.22;86.18;98589.78;5069814;28;20461;-75
2021/11/15 03:16:55;;;;;;;23.17;15.97;;;6.60;79.10;;;5.10;85.98;98576.75;5068921;28;20952;-75
2021/11/15 03:19:22;;;;;;;22.57;16.57;;;6.60;79.20;;;5.13;86.17;98574.75;5074724;28;20531;-75
2021/11/15 03:21:50;;;;;;;21.03;16.13;;;6.60;79.40;;;5.11;86.19;98577.56;5070815;28;20457;-75
2021/11/15 03:24:17;;;;;;;22.53;16.67;;;6.60;79.90;;;5.17;86.76;98594.84;5070875;28;20461;-75
2021/11/15 03:26:44;;;;;;;22.60;16.30;;;6.60;79.50;;;5.13;86.19;98585.47;5064354;28;20497;-75
2021/11/15 03:29:11;;;;;;;22.07;15.70;;;6.60;79.60;;;5.16;86.55;98579.75;5073069;28;20487;-75
2021/11/15 03:31:40;;;;;;;24.93;17.17;;;6.60;79.80;;;5.10;86.79;98598.19;5053412;28;20491;-74
2021/11/15 03:34:10;;;;;;;25.33;16.00;;;6.60;79.90;;;5.10;86.77;98579.44;5076316;28;21095;-76
2021/11/15 03:36:43;;;;;;;26.30;17.83;;;6.60;80.00;;;5.13;87.33;98585.47;5070770;28;20564;-77
2021/11/15 03:39:13;;;;;;;23.30;16.20;;;6.60;80.20;;;5.14;86.91;98587.94;5053310;28;20809;-76
2021/11/15 03:41:42;;;;;;;24.10;14.97;;;6.60;80.40;;;5.20;86.43;98576.59;5067099;28;20544;-76
2021/11/15 03:44:10;;;;;;;23.47;16.80;;;6.60;80.40;;;5.18;86.82;98578.59;5072422;28;20874;-77
2021/11/15 03:46:41;;;;;;;25.70;16.50;;;6.60;80.40;;;5.27;86.97;98581.28;5056189;28;20477;-78
2021/11/15 03:49:14;;;;;;;25.03;16.50;;;6.60;80.40;;;5.24;86.48;98577.09;5074055;28;20548;-77
2021/11/15 03:51:43;;;;;;;23.83;15.87;;;6.60;80.10;;;5.28;86.49;98575.75;5073339;28;20451;-77
2021/11/15 03:54:11;;;;;;;26.27;17.97;;;6.60;80.40;;;5.24;86.28;98577.91;5054962;28;20537;-76
2021/11/15 03:56:39;;;;;;;22.83;16.43;;;6.70;80.10;;;5.24;86.57;98577.09;5063112;28;20491;-76
2021/11/15 03:59:09;;;;;;;24.27;17.20;;;6.60;80.50;;;5.20;86.27;98565.03;5071479;28;21053;-75
2021/11/15 04:01:42;;;;;;;28.03;18.30;;;6.70;80.30;;;5.25;86.34;98560.00;5068679;28;20491;-77
2021/11/15 04:04:16;;;;;;;24.53;17.77;;;6.70;80.10;;;5.32;86.10;98589.66;5053131;28;20519;-76
2021/11/15 04:06:49;;;;;;;26.70;18.70;;;6.70;80.00;;;5.36;85.49;98578.41;5079897;28;20523;-77
2021/11/15 04:09:18;;;;;;;26.90;18.37;;;6.80;79.90;;;5.41;85.75;98579.78;5071231;28;20464;-76
2021/11/15 04:11:46;;;;;;;29.20;18.90;;;6.80;79.80;;;5.33;86.41;98581.44;5073159;28;20448;-77
2021/11/15 04:14:15;;;;;;;29.20;19.30;;;6.70;79.80;;;5.17;86.69;98582.28;5069734;28;20556;-76
2021/11/15 04:16:46;;;;;;;27.00;18.73;;;6.60;80.00;;;5.22;86.78;98574.56;5056277;28;20513;-77
2021/11/15 04:19:17;;;;;;;28.70;18.73;;;6.60;80.10;;;5.28;86.48;98567.72;5058569;28;20875;-75
2021/11/15 04:21:44;;;;;;;28.50;19.30;;;6.60;80.20;;;5.25;86.67;98573.41;5057035;28;20450;-76
2021/11/15 04:24:11;;;;;;;32.43;20.87;;;6.60;80.10;;;5.00;86.76;98543.06;5054864;28;20469;-75
2021/11/15 04:26:38;;;;;;;29.33;19.70;;;6.70;80.20;;;5.11;86.62;98561.50;5073154;28;20465;-76
2021/11/15 04:29:05;;;;;;;32.60;20.70;;;6.60;80.00;;;5.22;86.34;98579.09;5056869;28;20896;-76
2021/11/15 04:31:32;;;;;;;32.63;21.67;;;6.60;80.20;;;5.11;85.88;98566.88;5069259;28;20484;-75
2021/11/15 04:34:01;;;;;;;33.00;21.50;;;6.60;80.00;;;5.17;85.90;98565.38;5057054;28;20944;-76
2021/11/15 04:36:28;;;;;;;34.77;21.40;;;6.60;80.30;;;5.20;85.69;98575.75;5072660;28;20493;-76
2021/11/15 04:38:56;;;;;;;33.23;21.73;;;6.60;80.00;;;5.13;86.87;98574.75;5061382;28;20560;-73
2021/11/15 04:41:23;;;;;;;29.73;19.53;;;6.50;80.10;;;5.20;86.23;98565.88;5083638;28;20505;-78
2021/11/15 04:43:50;;;;;;;31.73;20.63;;;6.60;80.30;;;5.15;86.47;98570.06;5067888;28;20461;-77
2021/11/15 04:46:18;;;;;;;33.90;20.97;;;6.50;80.30;;;5.14;86.27;98565.69;5061125;28;20477;-77
2021/11/15 04:48:45;;;;;;;30.73;20.80;;;6.50;80.40;;;5.17;86.28;98565.38;5059690;28;20489;-76
2021/11/15 04:51:13;;;;;;;32.53;22.80;;;6.60;80.20;;;5.03;86.69;98564.19;5071979;28;20449;-78
2021/11/15 04:53:40;;;;;;;37.93;22.13;;;6.50;80.30;;;5.06;86.89;98572.72;5090463;28;20485;-78
2021/11/15 04:56:08;;;;;;;32.13;21.67;;;6.50;80.40;;;5.08;86.70;98562.69;5076400;28;20484;-76
2021/11/15 04:58:35;;;;;;;31.83;22.50;;;6.50;80.50;;;5.10;86.56;98566.03;5073623;28;20460;-76
2021/11/15 05:01:02;;;;;;;38.50;22.60;;;6.50;80.50;;;4.98;86.59;98553.97;5073573;28;20536;-77
2021/11/15 05:03:29;;;;;;;33.57;20.30;;;6.50;80.30;;;5.07;86.97;98571.72;5056497;28;20536;-75
2021/11/15 05:05:57;;;;;;;33.77;21.60;;;6.50;80.30;;;5.07;87.07;98566.34;5058623;28;20465;-76
2021/11/15 05:08:25;;;;;;;30.10;19.93;;;6.50;80.50;;;5.18;86.51;98580.44;5073696;28;20540;-76
2021/11/15 05:10:52;;;;;;;29.60;18.80;;;6.60;80.50;;;5.16;85.98;98563.69;5072255;28;20480;-75
2021/11/15 05:13:19;;;;;;;33.90;20.50;;;6.60;80.10;;;5.15;86.04;98564.69;5071211;28;20863;-75
2021/11/15 05:15:46;;;;;;;32.57;21.50;;;6.60;80.20;;;5.23;86.05;98575.41;5052744;28;20497;-75
2021/11/15 05:18:13;;;;;;;34.80;20.90;;;6.60;80.10;;;5.17;86.44;98570.72;5064775;28;20500;-75
2021/11/15 05:20:40;;;;;;;35.07;22.30;;;6.60;80.00;;;5.17;86.36;98568.03;5069601;28;20465;-74
2021/11/15 05:23:07;;;;;;;31.40;21.80;;;6.60;80.10;;;5.03;86.73;98548.13;5069389;28;20479;-77
2021/11/15 05:25:36;;;;;;;35.97;22.00;;;6.60;80.30;;;5.07;86.05;98544.09;5072226;28;21073;-75
2021/11/15 05:28:04;;;;;;;34.33;21.70;;;6.60;80.30;;;5.09;86.65;98567.03;5057298;28;20442;-76
2021/11/15 05:30:31;;;;;;;29.10;20.53;;;6.60;80.40;;;4.99;86.83;98547.63;5052998;28;21030;-76
2021/11/15 05:33:00;;;;;;;31.50;21.30;;;6.50;80.60;;;5.04;87.39;98552.47;5056155;28;20468;-75
2021/11/15 05:35:27;;;;;;;30.87;19.70;;;6.50;80.60;;;5.18;86.00;98564.34;5052236;28;20445;-76
2021/11/15 05:37:57;;;;;;;27.67;20.00;;;6.60;80.20;;;5.06;86.27;98556.66;5084939;28;20487;-75
2021/11/15 05:40:26;;;;;;;31.23;20.13;;;6.50;80.00;;;5.15;86.56;98564.69;5073191;28;20512;-75
2021/11/15 05:42:56;;;;;;;31.10;19.43;;;6.50;80.20;;;5.21;86.03;98574.72;5064500;28;20457;-76
2021/11/15 05:45:24;;;;;;;31.63;19.87;;;6.60;80.00;;;5.09;85.98;98567.03;5054172;28;21566;-75
2021/11/15 05:47:52;;;;;;;28.07;19.57;;;6.50;80.00;;;5.03;86.20;98570.38;5074304;28;20464;-76
2021/11/15 05:50:21;;;;;;;33.20;21.20;;;6.50;79.90;;;5.02;86.59;98563.34;5060839;28;20522;-75
2021/11/15 05:52:48;;;;;;;30.73;20.90;;;6.50;80.00;;;5.06;86.91;98569.22;5071477;28;20493;-75
2021/11/15 05:55:22;;;;;;;33.47;20.20;;;6.50;80.20;;;5.03;85.79;98575.72;5059778;28;20449;-77
2021/11/15 05:57:50;;;;;;;31.17;20.90;;;6.50;80.10;;;5.01;86.51;98575.06;5073447;28;20449;-76
2021/11/15 06:00:23;;;;;;;31.10;20.20;;;6.50;80.20;;;5.09;86.41;98584.94;5058873;28;20449;-76
2021/11/15 06:02:50;;;;;;;30.40;19.23;;;6.50;80.30;;;5.04;86.45;98581.94;5073846;28;20453;-75
2021/11/15 06:05:17;;;;;;;28.80;18.63;;;6.50;80.10;;;5.13;86.53;98585.47;5072899;28;20460;-76
2021/11/15 06:07:44;;;;;;;27.70;19.27;;;6.50;80.70;;;4.93;86.46;98567.03;5059266;28;20468;-76
2021/11/15 06:10:12;;;;;;;25.97;18.53;;;6.50;80.00;;;4.99;86.60;98585.09;5075737;28;20449;-76
2021/11/15 06:12:40;;;;;;;30.60;18.27;;;6.50;80.00;;;5.06;85.61;98586.09;5073815;28;20887;-74
2021/11/15 06:15:11;;;;;;;33.80;18.63;;;6.50;80.00;;;5.03;86.20;98583.75;5070274;28;20461;-75
2021/11/15 06:17:40;;;;;;;26.97;18.27;;;6.50;80.10;;;5.08;87.08;98589.47;5053040;28;20473;-76
2021/11/15 06:20:11;;;;;;;28.80;17.73;;;6.50;80.50;;;5.25;85.74;98589.50;5072883;28;20483;-77
2021/11/15 06:22:39;;;;;;;28.53;17.87;;;6.60;80.40;;;5.10;86.09;98592.84;5058173;28;20445;-75
2021/11/15 06:25:08;;;;;;;27.80;19.20;;;6.60;79.70;;;5.05;86.23;98581.75;5072458;28;20477;-75
2021/11/15 06:27:36;;;;;;;29.17;18.50;;;6.50;80.40;;;5.25;85.64;98605.56;5074249;28;20590;-76
2021/11/15 06:30:07;;;;;;;28.37;17.80;;;6.60;79.80;;;5.18;85.09;98617.94;5064175;28;20547;-76
2021/11/15 06:32:34;;;;;;;28.50;17.30;;;6.60;79.50;;;5.21;85.32;98610.41;5079944;28;20457;-76
2021/11/15 06:35:03;;;;;;;27.63;17.60;;;6.60;79.60;;;5.28;85.52;98613.25;5081059;28;20611;-73
2021/11/15 06:37:31;;;;;;;27.40;18.20;;;6.60;79.90;;;5.37;85.44;98608.75;5054215;28;20475;-75
2021/11/15 06:39:58;;;;;;;29.00;17.83;;;6.70;79.70;;;5.30;85.63;98619.28;5048027;28;20962;-74
2021/11/15 06:42:27;;;;;;;29.43;18.60;;;6.70;79.40;;;5.29;85.14;98617.63;5076614;28;20461;-76
2021/11/15 06:44:54;;;;;;;28.23;16.60;;;6.70;79.60;;;5.32;84.41;98611.91;5070931;28;20487;-73
2021/11/15 06:47:22;;;;;;;31.43;19.20;;;6.70;79.10;;;5.39;85.10;98623.66;5070013;28;20457;-72
2021/11/15 06:49:51;;;;;;;26.60;18.40;;;6.80;79.40;;;5.35;84.93;98624.97;5058630;28;20453;-72
2021/11/15 06:52:20;;;;;;;24.03;15.70;;;6.70;79.10;;;5.14;85.45;98620.09;5050576;28;20461;-78
2021/11/15 06:54:48;;;;;;;28.60;17.60;;;6.70;79.10;;;5.20;85.33;98642.72;5044484;28;20501;-71
2021/11/15 06:57:16;;;;;;;29.60;18.03;;;6.60;79.40;;;5.12;85.36;98637.38;5064683;28;20488;-71
2021/11/15 06:59:43;;;;;;;26.37;16.97;;;6.60;79.30;;;5.22;85.17;98635.34;5072223;28;20485;-72
2021/11/15 07:02:10;;;;;;;25.87;17.47;;;6.60;79.40;;;5.10;85.06;98632.16;5069100;28;20891;-73
2021/11/15 07:04:37;;;;;;;30.10;18.07;;;6.60;79.50;;;5.17;85.06;98629.66;5070847;28;20490;-71
2021/11/15 07:07:05;;;;;;;26.80;16.23;;;6.60;79.30;;;5.22;84.84;98635.34;5054240;28;20560;-74
2021/11/15 07:09:34;;;;;;;29.00;17.07;;;6.60;79.40;;;5.15;84.88;98629.81;5051203;28;20453;-73
2021/11/15 07:12:01;;;;;;;26.40;15.63;;;6.60;79.40;;;5.21;84.90;98631.00;5064093;28;20453;-71
2021/11/15 07:14:29;;;;;;;22.70;14.27;;;6.60;79.20;;;5.27;85.52;98629.50;5054897;28;20540;-72
2021/11/15 07:16:56;;;;;;;23.53;15.60;;;6.60;79.30;;;5.32;85.27;98633.34;5063529;28;20516;-73
2021/11/15 07:19:23;;;;;;;20.90;14.77;;;6.70;79.20;;;5.23;84.00;98627.16;5050084;28;20519;-73
2021/11/15 07:21:50;;;;;;;20.53;15.10;;;6.70;78.80;;;5.28;85.23;98637.38;5072378;28;20472;-73
2021/11/15 07:24:18;;;;;;;22.50;15.17;;;6.70;79.00;;;5.24;84.58;98617.28;5068138;28;20529;-73
2021/11/15 07:26:46;;;;;;;24.77;15.90;;;6.60;78.60;;;5.11;84.54;98628.47;5059701;28;20489;-72
2021/11/15 07:29:13;;;;;;;21.90;15.07;;;6.60;78.80;;;5.15;85.03;98620.94;5051371;28;20491;-73
2021/11/15 07:31:42;;;;;;;23.23;14.40;;;6.60;78.80;;;5.04;84.30;98608.72;5047919;28;20448;-73
2021/11/15 07:34:09;;;;;;;26.80;15.57;;;6.60;78.70;;;5.18;84.67;98624.16;5068719;28;20466;-72
2021/11/15 07:36:37;;;;;;;19.60;13.70;;;6.60;78.80;;;5.13;84.41;98628.31;5044639;28;20456;-73
2021/11/15 07:39:05;;;;;;;22.60;16.75;;;6.60;78.60;;;5.23;84.35;98637.03;5062584;28;21070;-72
2021/11/15 07:41:32;;;;;;;26.30;14.80;;;6.60;78.70;;;5.30;83.51;98632.69;5062520;28;20272;-72
2021/11/15 07:44:01;;;;;;;22.60;14.27;;;6.70;78.30;;;5.31;84.00;98630.84;5068527;28;20582;-72
2021/11/15 07:46:28;;;;;;;21.13;14.07;;;6.70;78.30;;;5.27;83.98;98625.00;5048583;28;20575;-72
2021/11/15 07:48:55;;;;;;;25.30;15.13;;;6.70;78.00;;;5.35;83.57;98653.63;5067114;28;20921;-72
2021/11/15 07:51:22;;;;;;;18.90;12.87;;;6.80;78.20;;;5.45;83.08;98638.22;5060014;28;20493;-72
2021/11/15 07:53:49;;;;;;;21.57;13.90;;;6.80;77.80;;;5.41;82.71;98644.91;5072824;28;20487;-73
2021/11/15 07:56:16;;;;;;;23.17;13.93;;;6.80;77.60;;;5.44;82.84;98649.13;5055791;28;20511;-72
2021/11/15 07:58:43;;;;;;;23.50;13.77;;;6.80;77.70;;;5.40;83.51;98645.91;5052925;28;20457;-71
2021/11/15 08:01:12;;;;;;;17.73;12.40;;;6.80;77.70;;;5.44;83.35;98646.44;5046561;28;20545;-72
2021/11/15 08:03:41;;;;;;;23.33;14.43;;;6.90;77.60;;;5.36;83.62;98640.03;5051002;28;20500;-73
2021/11/15 08:06:10;;;;;;;19.07;13.70;;;6.80;77.70;;;5.35;83.59;98646.41;5061282;28;20465;-70
2021/11/15 08:08:37;;;;;;;20.03;14.03;;;6.80;77.60;;;5.35;83.73;98626.84;5047130;28;20490;-69
2021/11/15 08:11:07;;;;;;;19.20;13.03;;;6.70;77.60;;;5.42;83.65;98627.00;5063122;28;20532;-69
2021/11/15 08:13:34;;;;;;;18.00;13.30;;;6.80;78.10;;;5.45;83.40;98626.66;5063520;28;20564;-69
2021/11/15 08:16:02;;;;;;;20.10;13.30;;;6.80;77.60;;;5.57;83.31;98625.31;5062267;28;20544;-68
2021/11/15 08:18:30;;;;;;;22.00;14.90;;;6.90;77.70;;;5.54;82.36;98625.66;5042843;28;20536;-70
2021/11/15 08:20:59;;;;;;;21.07;13.23;;;6.90;77.30;;;5.49;82.26;98626.16;5038865;28;20879;-68
2021/11/15 08:23:27;;;;;;;20.70;14.00;;;6.90;77.10;;;5.34;83.25;98609.91;5042701;28;20515;-69
2021/11/15 08:26:36;;;;;;;19.30;13.50;;;6.90;77.40;;;5.46;83.40;98622.97;5062759;28;20465;-69
2021/11/15 08:29:07;;;;;;;20.23;13.80;;;6.90;77.30;;;5.58;82.87;98620.78;5060485;28;20493;-68
2021/11/15 08:31:35;;;;;;;21.97;13.70;;;6.90;77.10;;;5.64;82.67;98618.28;5043160;28;20856;-68
2021/11/15 08:34:04;;;;;;;22.23;13.50;;;7.00;77.10;;;5.67;81.93;98617.94;5046762;28;21067;-68
2021/11/15 08:36:32;;;;;;;18.10;12.73;;;7.10;76.80;;;5.83;82.00;98608.19;5044608;28;20544;-68
2021/11/15 08:39:01;;;;;;;16.63;13.33;;;7.10;76.80;;;5.89;81.42;98602.16;5064573;28;20519;-69
2021/11/15 08:41:32;;;;;;;19.37;13.13;;;7.20;76.30;;;5.92;81.36;98607.19;5063516;28;20458;-68
2021/11/15 08:44:04;;;;;;;17.87;13.90;;;7.30;76.20;;;5.91;81.63;98599.28;5062572;28;20452;-69
2021/11/15 08:46:32;;;;;;;24.20;13.67;;;7.20;76.30;;;5.96;80.82;98597.78;5061276;28;20569;-68
2021/11/15 08:49:03;;;;;;;21.27;14.17;;;7.30;75.80;;;5.86;81.01;98601.66;5047217;28;20539;-69
2021/11/15 08:51:31;;;;;;;19.37;13.17;;;7.30;75.90;;;6.05;80.45;98613.88;5061060;28;20951;-68
2021/11/15 08:53:59;;;;;;;21.55;14.52;;;7.30;75.70;;;5.81;80.87;98607.53;5061954;28;20554;-69
2021/11/15 08:56:27;;;;;;;23.87;14.37;;;7.20;75.60;;;5.75;81.45;98597.50;5061655;28;20226;-69
2021/11/15 08:58:54;;;;;;;19.00;13.70;;;7.20;75.80;;;5.82;81.47;98601.16;5062409;28;20484;-70
2021/11/15 09:01:22;;;;;;;21.40;12.63;;;7.20;75.60;;;5.94;80.95;98607.84;5061503;28;20482;-69
2021/11/15 09:03:51;;;;;;;17.80;12.73;;;7.30;75.80;;;5.76;81.58;98607.22;5057787;28;20469;-68
2021/11/15 09:06:20;;;;;;;18.20;12.80;;;7.20;75.90;;;5.87;81.20;98609.53;5068288;28;20968;-69
2021/11/15 09:08:47;;;;;;;19.60;12.90;;;7.20;76.00;;;5.96;80.88;98607.69;5060611;28;20833;-69
2021/11/15 09:11:15;;;;;;;23.43;14.20;;;7.30;75.90;;;5.93;80.98;98603.47;5068252;28;20560;-69
2021/11/15 09:13:45;;;;;;;19.80;13.73;;;7.30;75.70;;;5.80;81.01;98606.69;5057401;28;20552;-67
2021/11/15 09:16:14;;;;;;;19.23;12.67;;;7.30;75.50;;;5.97;80.84;98612.03;5062994;28;21019;-68
2021/11/15 09:18:44;;;;;;;17.70;11.50;;;7.30;75.60;;;5.92;81.22;98591.09;5061461;28;20514;-68
2021/11/15 09:21:12;;;;;;;21.43;13.40;;;7.30;75.50;;;6.02;80.93;98607.00;5062165;28;20488;-68
2021/11/15 09:23:44;;;;;;;22.10;13.50;;;7.40;75.50;;;6.15;80.28;98614.53;5048943;28;20561;-69
2021/11/15 09:26:14;;;;;;;19.47;12.17;;;7.50;75.40;;;6.35;79.36;98606.91;5059032;28;20506;-69
2021/11/15 09:28:41;;;;;;;20.73;13.43;;;7.60;75.10;;;6.35;79.34;98611.44;5062135;28;20460;-68
2021/11/15 09:31:09;;;;;;;16.93;12.37;;;7.70;74.50;;;6.19;79.96;98607.81;5047097;28;20478;-68
2021/11/15 09:33:37;;;;;;;17.27;13.13;;;7.60;74.60;;;6.06;79.85;98612.88;5047751;28;20464;-68
2021/11/15 09:36:05;;;;;;;18.53;12.77;;;7.50;74.40;;;6.18;79.81;98621.38;5061170;28;20453;-69
2021/11/15 09:38:32;;;;;;;17.20;10.93;;;7.50;74.60;;;6.27;79.94;98608.78;5065252;28;20521;-68
2021/11/15 09:41:04;;;;;;;17.50;12.33;;;7.60;74.70;;;6.43;78.54;98613.25;5049534;28;20480;-69
2021/11/15 09:43:35;;;;;;;16.50;12.17;;;7.70;74.20;;;6.43;78.48;98606.03;5067371;28;20584;-67
2021/11/15 09:46:05;;;;;;;18.20;12.63;;;7.70;74.00;;;6.35;78.48;98614.13;5065967;28;20538;-68
2021/11/15 09:48:35;;;;;;;17.20;12.30;;;7.80;73.70;;;6.53;78.91;98621.94;5066272;28;20504;-68
2021/11/15 09:51:03;;;;;;;17.13;11.80;;;7.80;74.00;;;6.68;78.03;98616.66;5063223;28;21030;-67
2021/11/15 09:53:31;;;;;;;16.60;11.83;;;7.90;73.50;;;6.85;76.96;98621.94;5064706;28;20460;-67
2021/11/15 09:56:00;;;;;;;17.57;12.27;;;8.10;73.20;;;6.88;76.92;98622.44;5049997;28;20460;-68
2021/11/15 09:58:30;;;;;;;14.97;10.80;;;8.20;72.80;;;6.95;76.82;98619.88;5065309;28;20575;-69
2021/11/15 10:00:57;;;;;;;15.20;10.57;;;8.30;72.50;;;6.94;76.72;98615.53;5060935;28;20457;-68
2021/11/15 10:03:25;;;;;;;15.53;11.10;;;8.30;72.40;;;6.73;76.96;98610.78;5066558;28;20522;-70
2021/11/15 10:05:54;;;;;;;16.33;12.37;;;8.20;72.10;;;6.51;78.26;98619.44;5065837;28;20456;-71
2021/11/15 10:08:22;;;;;;;15.00;10.23;;;8.00;72.20;;;6.61;77.73;98624.59;5046605;28;20460;-72
2021/11/15 10:10:56;;;;;;;18.20;11.50;;;8.00;72.50;;;6.57;77.45;98609.00;5068600;28;20522;-68
2021/11/15 10:13:27;;;;;;;17.40;11.37;;;8.00;72.60;;;6.91;76.70;98615.88;5050694;28;20518;-68
2021/11/15 10:16:02;;;;;;;15.23;11.67;;;8.20;72.40;;;6.96;76.40;98624.25;5040575;28;20476;-67
2021/11/15 10:18:50;;;;;;;16.30;11.40;;;8.30;71.80;;;6.88;76.03;98630.50;5073248;28;20465;-67
2021/11/15 10:21:27;;;;;;;17.10;11.30;;;8.30;71.50;;;6.92;76.77;98617.56;5068581;28;20460;-68
2021/11/15 10:24:02;;;;;;;17.10;11.57;;;8.20;71.80;;;6.76;77.15;98621.16;5049536;28;21018;-68
2021/11/15 10:26:35;;;;;;;15.93;11.30;;;8.20;71.60;;;6.76;77.14;98621.16;5063949;28;20587;-69